Richburg, New York
Current Conditions -  °F | °C
As of 6:56 AM on Thursday 23 Oct 2014 (Local Time) from KELZ Reporting Station
Overcast Overcast  
Wind Chill: 32°   Ceiling: 700
Heat Index: 41°   Visibility: 10mi
Dew Point: 38°   Wind: 17mph
Humidity: 89%   Direction: 330°NNW
Pressure: 30.05"   Gusts: 24mph
Location:  42.09°N, 78.15°W
Report Text: KELZ 231056Z AUTO 33015G21KT 10SM OVC007 05/03 A3005 RMK AO2 SLP190 T00500033
Loading
Personal Weather Stations






























Interactive Weather Map
Tropical Storm Tracking
New forecast layout! Learn more

10-Day Weather Forecast

Advertisements
Track Severe Weather on mobile